Junin, Argentina
Current Conditions -  °F | °C
As of 2:00 PM on Saturday 25 Oct 2014 (Local Time) from SAAR Reporting Station
Scattered Clouds Scattered Clouds  
Wind Chill: 84°   Ceiling: Unl
Heat Index: 84°   Visibility: 6mi
Dew Point: 61°   Wind: 12mph
Humidity: 45%   Direction: 70°ENE
Pressure: 29.88"   Gusts: NA
Location:  34.59°S, 60.96°W
Report Text: SAAR 251700Z 07010KT 9999 FEW035 SCT10029/16 Q1012
Loading
Personal Weather Stations






























Interactive Weather Map
Tropical Storm Tracking
New forecast layout! Learn more

10-Day Weather Forecast

Advertisements
Track Severe Weather on mobile